createdAt,value
2017-04-17T00:00:01.396Z,1012.32
2017-04-17T00:00:42.274Z,1012.32
2017-04-17T00:01:23.136Z,1012.29
2017-04-17T00:02:04.007Z,1012.24
2017-04-17T00:02:44.874Z,1012.3
2017-04-17T00:03:25.760Z,1012.29
2017-04-17T00:04:06.682Z,1012.29
2017-04-17T00:04:47.551Z,1012.25
2017-04-17T00:05:28.425Z,1012.25
2017-04-17T00:06:09.294Z,1012.24
2017-04-17T00:06:50.174Z,1012.25
2017-04-17T00:07:31.051Z,1012.2
2017-04-17T00:08:11.941Z,1012.28
2017-04-17T00:08:52.828Z,1012.16
2017-04-17T00:09:33.722Z,1012.19
2017-04-17T00:10:14.589Z,1012.19
2017-04-17T00:10:55.462Z,1012.21
2017-04-17T00:11:36.330Z,1012.21
2017-04-17T00:12:17.179Z,1012.21
2017-04-17T00:12:58.044Z,1012.18
2017-04-17T00:13:38.883Z,1012.18
2017-04-17T00:14:19.739Z,1012.18
2017-04-17T00:15:00.583Z,1012.15
2017-04-17T00:15:41.443Z,1012.17
2017-04-17T00:16:22.309Z,1012.12
2017-04-17T00:17:03.240Z,1012.13
2017-04-17T00:17:44.113Z,1012.13
2017-04-17T00:18:24.988Z,1012.12
2017-04-17T00:19:05.868Z,1012.1
2017-04-17T00:19:46.747Z,1012.06
2017-04-17T00:20:27.629Z,1012.07
2017-04-17T00:21:08.509Z,1012.07
2017-04-17T00:21:49.376Z,1012.03
2017-04-17T00:22:30.249Z,1012.05
2017-04-17T00:23:11.132Z,1012.04
2017-04-17T00:23:52.024Z,1012.04
2017-04-17T00:24:32.909Z,1012.05
2017-04-17T00:25:13.772Z,1012.02
2017-04-17T00:25:54.646Z,1012.04
2017-04-17T00:26:35.502Z,1012.03
2017-04-17T00:27:16.388Z,1012
2017-04-17T00:27:57.257Z,1012.02
2017-04-17T00:28:38.131Z,1012
2017-04-17T00:29:19.017Z,1011.98
2017-04-17T00:29:59.888Z,1011.97
2017-04-17T00:30:40.761Z,1011.99
2017-04-17T00:31:21.644Z,1011.97
2017-04-17T00:32:02.510Z,1011.98
2017-04-17T00:32:43.373Z,1011.98
2017-04-17T00:33:24.251Z,1011.97
2017-04-17T00:34:05.123Z,1012.02
2017-04-17T00:34:46.005Z,1011.98
2017-04-17T00:35:26.883Z,1012.02
2017-04-17T00:36:08.479Z,1012.02
2017-04-17T00:36:49.347Z,1011.99
2017-04-17T00:37:30.215Z,1012.03
2017-04-17T00:38:11.089Z,1012.03
2017-04-17T00:38:51.946Z,1011.99
2017-04-17T00:39:32.813Z,1012.02
2017-04-17T00:40:13.697Z,1012.01
2017-04-17T00:40:54.579Z,1011.99
2017-04-17T00:41:35.487Z,1011.99
2017-04-17T00:42:16.410Z,1011.98
2017-04-17T00:42:57.289Z,1011.97
2017-04-17T00:43:38.138Z,1012
2017-04-17T00:44:19.058Z,1011.93
2017-04-17T00:44:59.905Z,1011.99
2017-04-17T00:45:40.761Z,1011.95
2017-04-17T00:46:21.634Z,1011.98
2017-04-17T00:47:02.516Z,1011.95
2017-04-17T00:47:43.375Z,1011.92
2017-04-17T00:48:24.226Z,1011.94
2017-04-17T00:49:05.097Z,1011.93
2017-04-17T00:49:45.977Z,1011.9
2017-04-17T00:50:26.857Z,1011.93
2017-04-17T00:51:07.734Z,1011.9
2017-04-17T00:51:48.661Z,1011.89
2017-04-17T00:52:29.528Z,1011.86
2017-04-17T00:53:10.395Z,1011.85
2017-04-17T00:53:51.262Z,1011.85
2017-04-17T00:54:32.161Z,1011.84
2017-04-17T00:55:13.035Z,1011.86
2017-04-17T00:55:53.911Z,1011.8
2017-04-17T00:56:34.794Z,1011.81
2017-04-17T00:57:15.678Z,1011.78
2017-04-17T00:57:56.549Z,1011.77
2017-04-17T00:58:37.413Z,1011.78
2017-04-17T00:59:18.280Z,1011.83
2017-04-17T00:59:59.139Z,1011.81
2017-04-17T01:00:40.002Z,1011.77
2017-04-17T01:01:20.871Z,1011.78
2017-04-17T01:02:01.748Z,1011.76
2017-04-17T01:02:42.619Z,1011.8
2017-04-17T01:03:23.505Z,1011.76
2017-04-17T01:04:04.403Z,1011.79
2017-04-17T01:04:45.233Z,1011.79
2017-04-17T01:05:26.107Z,1011.79
2017-04-17T01:06:06.979Z,1011.74
2017-04-17T01:06:47.824Z,1011.76
2017-04-17T01:07:28.699Z,1011.78
2017-04-17T01:08:09.565Z,1011.79
2017-04-17T01:08:50.441Z,1011.77
2017-04-17T01:09:31.319Z,1011.73
2017-04-17T01:10:12.204Z,1011.74
2017-04-17T01:10:53.091Z,1011.71
2017-04-17T01:11:33.943Z,1011.74
2017-04-17T01:12:14.827Z,1011.72
2017-04-17T01:12:55.670Z,1011.72
2017-04-17T01:13:36.542Z,1011.73
2017-04-17T01:14:17.387Z,1011.74
2017-04-17T01:14:58.205Z,1011.73
2017-04-17T01:15:39.080Z,1011.7
2017-04-17T01:16:19.945Z,1011.69
2017-04-17T01:17:00.810Z,1011.69
2017-04-17T01:17:41.694Z,1011.68
2017-04-17T01:18:22.558Z,1011.7
2017-04-17T01:19:03.431Z,1011.68
2017-04-17T01:19:44.345Z,1011.72
2017-04-17T01:20:25.197Z,1011.7
2017-04-17T01:21:06.062Z,1011.66
2017-04-17T01:21:46.934Z,1011.67
2017-04-17T01:22:27.803Z,1011.7
2017-04-17T01:23:08.679Z,1011.66
2017-04-17T01:23:49.567Z,1011.65
2017-04-17T01:24:30.432Z,1011.66
2017-04-17T01:25:11.311Z,1011.66
2017-04-17T01:25:52.176Z,1011.64
2017-04-17T01:26:33.021Z,1011.64
2017-04-17T01:27:13.883Z,1011.65
2017-04-17T01:27:54.742Z,1011.62
2017-04-17T01:28:35.602Z,1011.66
2017-04-17T01:29:16.446Z,1011.6
2017-04-17T01:29:57.290Z,1011.64
2017-04-17T01:30:38.158Z,1011.65
2017-04-17T01:31:19.020Z,1011.64
2017-04-17T01:31:59.879Z,1011.61
2017-04-17T01:32:40.751Z,1011.62
2017-04-17T01:33:21.597Z,1011.63
2017-04-17T01:34:02.459Z,1011.65
2017-04-17T01:34:43.339Z,1011.65
2017-04-17T01:35:24.229Z,1011.63
2017-04-17T01:36:05.096Z,1011.65
2017-04-17T01:36:45.954Z,1011.7
2017-04-17T01:37:26.817Z,1011.69
2017-04-17T01:38:07.708Z,1011.63
2017-04-17T01:38:48.568Z,1011.62
2017-04-17T01:39:29.416Z,1011.63
2017-04-17T01:40:10.301Z,1011.63
2017-04-17T01:40:51.152Z,1011.59
2017-04-17T01:41:31.997Z,1011.6
2017-04-17T01:42:12.866Z,1011.58
2017-04-17T01:42:53.772Z,1011.57
2017-04-17T01:43:34.640Z,1011.59
2017-04-17T01:44:15.502Z,1011.6
2017-04-17T01:44:56.375Z,1011.6
2017-04-17T01:45:37.239Z,1011.64
2017-04-17T01:46:18.122Z,1011.56
2017-04-17T01:46:58.986Z,1011.63
2017-04-17T01:47:39.860Z,1011.58
2017-04-17T01:48:20.747Z,1011.6
2017-04-17T01:49:01.609Z,1011.62
2017-04-17T01:49:42.469Z,1011.63
2017-04-17T01:50:23.361Z,1011.62
2017-04-17T01:51:04.206Z,1011.6
2017-04-17T01:51:45.075Z,1011.58
2017-04-17T01:52:25.935Z,1011.58
2017-04-17T01:53:06.801Z,1011.56
2017-04-17T01:53:47.697Z,1011.55
2017-04-17T01:54:28.570Z,1011.53
2017-04-17T01:55:09.450Z,1011.56
2017-04-17T01:55:50.308Z,1011.55
2017-04-17T01:56:31.166Z,1011.56
2017-04-17T01:57:12.046Z,1011.57
2017-04-17T01:57:52.941Z,1011.59
2017-04-17T01:58:33.819Z,1011.6
2017-04-17T01:59:14.705Z,1011.59
2017-04-17T01:59:55.566Z,1011.55
2017-04-17T02:00:36.436Z,1011.57
2017-04-17T02:01:17.310Z,1011.56
2017-04-17T02:01:58.202Z,1011.54
2017-04-17T02:02:39.072Z,1011.53
2017-04-17T02:03:19.960Z,1011.53
2017-04-17T02:04:00.810Z,1011.53
2017-04-17T02:04:41.688Z,1011.54
2017-04-17T02:05:22.583Z,1011.52
2017-04-17T02:06:03.459Z,1011.52
2017-04-17T02:06:44.335Z,1011.52
2017-04-17T02:07:25.208Z,1011.52
2017-04-17T02:08:06.092Z,1011.49
2017-04-17T02:08:46.974Z,1011.49
2017-04-17T02:09:27.842Z,1011.5
2017-04-17T02:10:08.727Z,1011.5
2017-04-17T02:10:49.601Z,1011.48
2017-04-17T02:11:30.470Z,1011.49
2017-04-17T02:12:11.354Z,1011.45
2017-04-17T02:12:52.243Z,1011.49
2017-04-17T02:13:33.122Z,1011.51
2017-04-17T02:14:13.979Z,1011.47
2017-04-17T02:14:54.845Z,1011.49
2017-04-17T02:15:35.727Z,1011.49
2017-04-17T02:16:16.616Z,1011.49
2017-04-17T02:16:57.484Z,1011.5
2017-04-17T02:17:38.345Z,1011.51
2017-04-17T02:18:19.215Z,1011.53
2017-04-17T02:19:00.086Z,1011.51
2017-04-17T02:19:40.964Z,1011.55
2017-04-17T02:20:21.846Z,1011.5
2017-04-17T02:21:02.747Z,1011.53
2017-04-17T02:21:43.614Z,1011.53
2017-04-17T02:22:24.481Z,1011.51
2017-04-17T02:23:05.365Z,1011.52
2017-04-17T02:23:46.241Z,1011.53
2017-04-17T02:24:27.127Z,1011.49
2017-04-17T02:25:08.011Z,1011.49
2017-04-17T02:25:48.869Z,1011.5
2017-04-17T02:26:29.759Z,1011.48
2017-04-17T02:27:10.635Z,1011.47
2017-04-17T02:27:51.519Z,1011.48
2017-04-17T02:28:32.388Z,1011.5
2017-04-17T02:29:13.264Z,1011.5
2017-04-17T02:29:54.122Z,1011.48
2017-04-17T02:30:34.992Z,1011.52
2017-04-17T02:31:15.875Z,1011.53
2017-04-17T02:31:56.757Z,1011.5
2017-04-17T02:32:37.627Z,1011.49
2017-04-17T02:33:18.502Z,1011.52
2017-04-17T02:33:59.382Z,1011.49
2017-04-17T02:34:40.267Z,1011.52
2017-04-17T02:35:21.143Z,1011.5
2017-04-17T02:36:02.012Z,1011.51
2017-04-17T02:36:42.892Z,1011.49
2017-04-17T02:37:23.765Z,1011.47
2017-04-17T02:38:04.635Z,1011.47
2017-04-17T02:38:45.518Z,1011.51
2017-04-17T02:39:26.394Z,1011.49
2017-04-17T02:40:07.268Z,1011.47
2017-04-17T02:40:48.146Z,1011.5
2017-04-17T02:41:29.119Z,1011.5
2017-04-17T02:42:09.904Z,1011.53
2017-04-17T02:42:50.774Z,1011.54
2017-04-17T02:43:31.655Z,1011.54
2017-04-17T02:44:12.536Z,1011.52
2017-04-17T02:44:53.413Z,1011.5
2017-04-17T02:45:34.309Z,1011.52
2017-04-17T02:46:15.187Z,1011.53
2017-04-17T02:46:56.069Z,1011.56
2017-04-17T02:47:36.958Z,1011.55
2017-04-17T02:48:17.840Z,1011.54
2017-04-17T02:48:58.730Z,1011.54
2017-04-17T02:49:39.607Z,1011.56
2017-04-17T02:50:20.485Z,1011.54
2017-04-17T02:51:01.361Z,1011.54
2017-04-17T02:51:42.236Z,1011.53
2017-04-17T02:52:23.107Z,1011.53
2017-04-17T02:53:03.968Z,1011.52
2017-04-17T02:53:44.849Z,1011.53
2017-04-17T02:54:25.707Z,1011.55
2017-04-17T02:55:06.568Z,1011.54
2017-04-17T02:55:47.453Z,1011.54
2017-04-17T02:56:28.335Z,1011.5
2017-04-17T02:57:09.208Z,1011.54
2017-04-17T02:57:50.078Z,1011.51
2017-04-17T02:59:28.442Z,1011.45
2017-04-17T03:00:09.320Z,1011.48
2017-04-17T03:00:50.232Z,1011.45
2017-04-17T03:01:31.116Z,1011.45
2017-04-17T03:02:11.992Z,1011.41
2017-04-17T03:02:52.861Z,1011.41
2017-04-17T03:03:33.735Z,1011.39
2017-04-17T03:04:14.596Z,1011.45
2017-04-17T03:04:55.468Z,1011.42
2017-04-17T03:05:36.328Z,1011.45
2017-04-17T03:06:17.215Z,1011.48
2017-04-17T03:06:58.075Z,1011.39
2017-04-17T03:07:38.933Z,1011.41
2017-04-17T03:08:19.799Z,1011.44
2017-04-17T03:09:00.696Z,1011.42
2017-04-17T03:09:41.578Z,1011.45
2017-04-17T03:11:40.333Z,1011.42
2017-04-17T03:12:21.210Z,1011.43
2017-04-17T03:13:02.084Z,1011.41
2017-04-17T03:13:42.945Z,1011.41
2017-04-17T03:14:23.828Z,1011.39
2017-04-17T03:15:04.723Z,1011.38
2017-04-17T03:15:45.590Z,1011.39
2017-04-17T03:16:26.466Z,1011.41
2017-04-17T03:17:07.330Z,1011.39
2017-04-17T03:17:48.189Z,1011.42
2017-04-17T03:18:29.057Z,1011.44
2017-04-17T03:19:09.923Z,1011.39
2017-04-17T03:19:50.789Z,1011.4
2017-04-17T03:20:31.669Z,1011.39
2017-04-17T03:21:12.548Z,1011.4
2017-04-17T03:21:53.429Z,1011.39
2017-04-17T03:22:34.292Z,1011.42
2017-04-17T03:23:15.186Z,1011.42
2017-04-17T03:23:56.059Z,1011.4
2017-04-17T03:24:36.932Z,1011.4
2017-04-17T03:25:17.794Z,1011.38
2017-04-17T03:25:58.686Z,1011.41
2017-04-17T03:27:32.382Z,1011.41
2017-04-17T03:28:13.267Z,1011.44
2017-04-17T03:28:54.129Z,1011.44
2017-04-17T03:29:35.023Z,1011.44
2017-04-17T03:30:15.893Z,1011.39
2017-04-17T03:30:56.774Z,1011.36
2017-04-17T03:31:37.660Z,1011.43
2017-04-17T03:32:18.539Z,1011.36
2017-04-17T03:32:59.409Z,1011.37
2017-04-17T03:33:40.287Z,1011.39
2017-04-17T03:34:21.165Z,1011.4
2017-04-17T03:35:02.058Z,1011.42
2017-04-17T03:35:42.928Z,1011.38
2017-04-17T03:36:23.804Z,1011.38
2017-04-17T03:37:04.674Z,1011.39
2017-04-17T03:37:45.561Z,1011.4
2017-04-17T03:38:26.417Z,1011.43
2017-04-17T03:39:07.303Z,1011.4
2017-04-17T03:39:48.188Z,1011.36
2017-04-17T03:40:29.049Z,1011.37
2017-04-17T03:41:09.918Z,1011.43
2017-04-17T03:41:50.798Z,1011.38
2017-04-17T03:42:31.680Z,1011.37
2017-04-17T03:43:12.542Z,1011.35
2017-04-17T03:43:53.406Z,1011.35
2017-04-17T03:44:34.293Z,1011.39
2017-04-17T03:45:15.173Z,1011.36
2017-04-17T03:45:56.053Z,1011.37
2017-04-17T03:46:36.934Z,1011.37
2017-04-17T03:47:17.796Z,1011.37
2017-04-17T03:47:58.654Z,1011.39
2017-04-17T03:48:39.559Z,1011.39
2017-04-17T03:49:20.416Z,1011.45
2017-04-17T03:50:01.299Z,1011.39
2017-04-17T03:50:42.162Z,1011.39
2017-04-17T03:51:23.019Z,1011.37
2017-04-17T03:52:03.894Z,1011.39
2017-04-17T03:52:44.759Z,1011.4
2017-04-17T03:53:25.663Z,1011.4
2017-04-17T03:54:06.544Z,1011.42
2017-04-17T03:54:47.411Z,1011.4
2017-04-17T03:55:29.088Z,1011.37
2017-04-17T03:56:09.966Z,1011.35
2017-04-17T03:56:50.852Z,1011.41
2017-04-17T03:57:31.776Z,1011.42
2017-04-17T03:58:12.647Z,1011.37
2017-04-17T03:58:53.502Z,1011.42
2017-04-17T03:59:34.384Z,1011.35
2017-04-17T04:00:15.268Z,1011.41
2017-04-17T04:00:56.147Z,1011.39
2017-04-17T04:01:37.028Z,1011.39
2017-04-17T04:02:17.897Z,1011.36
2017-04-17T04:02:58.752Z,1011.4
2017-04-17T04:03:39.645Z,1011.42
2017-04-17T04:04:20.514Z,1011.4
2017-04-17T04:05:01.378Z,1011.4
2017-04-17T04:05:42.262Z,1011.45
2017-04-17T04:06:23.150Z,1011.39
2017-04-17T04:07:04.026Z,1011.37
2017-04-17T04:07:44.886Z,1011.43
2017-04-17T04:08:25.756Z,1011.42
2017-04-17T04:09:06.627Z,1011.38
2017-04-17T04:09:47.494Z,1011.45
2017-04-17T04:10:28.372Z,1011.44
2017-04-17T04:11:09.255Z,1011.43
2017-04-17T04:11:50.157Z,1011.43
2017-04-17T04:12:31.038Z,1011.39
2017-04-17T04:13:11.895Z,1011.37
2017-04-17T04:13:52.747Z,1011.4
2017-04-17T04:14:33.612Z,1011.47
2017-04-17T04:15:14.485Z,1011.39
2017-04-17T04:15:55.360Z,1011.43
2017-04-17T04:16:36.243Z,1011.37
2017-04-17T04:17:17.115Z,1011.42
2017-04-17T04:17:57.999Z,1011.39
2017-04-17T04:18:38.867Z,1011.44
2017-04-17T04:19:19.741Z,1011.42
2017-04-17T04:20:00.616Z,1011.46
2017-04-17T04:20:41.489Z,1011.44
2017-04-17T04:21:22.371Z,1011.38
2017-04-17T04:22:03.248Z,1011.39
2017-04-17T04:22:44.117Z,1011.43
2017-04-17T04:23:24.994Z,1011.46
2017-04-17T04:24:05.878Z,1011.46
2017-04-17T04:24:46.766Z,1011.48
2017-04-17T04:25:27.643Z,1011.49
2017-04-17T04:26:08.519Z,1011.48
2017-04-17T04:26:49.395Z,1011.47
2017-04-17T04:27:30.272Z,1011.49
2017-04-17T04:28:11.158Z,1011.45
2017-04-17T04:28:52.019Z,1011.46
2017-04-17T04:29:32.892Z,1011.44
2017-04-17T04:30:13.765Z,1011.43
2017-04-17T04:30:54.628Z,1011.47
2017-04-17T04:31:35.504Z,1011.45
2017-04-17T04:32:16.385Z,1011.43
2017-04-17T04:32:57.255Z,1011.44
2017-04-17T04:33:38.122Z,1011.42
2017-04-17T04:34:19.000Z,1011.43
2017-04-17T04:34:59.883Z,1011.47
2017-04-17T04:35:40.771Z,1011.48
2017-04-17T04:36:21.652Z,1011.46
2017-04-17T04:37:02.530Z,1011.43
2017-04-17T04:37:43.423Z,1011.43
2017-04-17T04:38:24.309Z,1011.41
2017-04-17T04:39:05.201Z,1011.47
2017-04-17T04:39:46.060Z,1011.48
2017-04-17T04:40:26.925Z,1011.45
2017-04-17T04:41:07.803Z,1011.39
2017-04-17T04:41:48.670Z,1011.43
2017-04-17T04:42:29.552Z,1011.45
2017-04-17T04:43:10.435Z,1011.48
2017-04-17T04:43:51.313Z,1011.43
2017-04-17T04:44:32.173Z,1011.41
2017-04-17T04:45:13.044Z,1011.49
2017-04-17T04:45:53.919Z,1011.48
2017-04-17T04:46:34.814Z,1011.45
2017-04-17T04:47:15.685Z,1011.44
2017-04-17T04:47:56.567Z,1011.41
2017-04-17T04:48:37.453Z,1011.4
2017-04-17T04:49:18.338Z,1011.46
2017-04-17T04:49:59.202Z,1011.43
2017-04-17T04:50:40.094Z,1011.42
2017-04-17T04:51:20.958Z,1011.44
2017-04-17T04:52:01.864Z,1011.37
2017-04-17T04:52:42.749Z,1011.44
2017-04-17T04:53:23.623Z,1011.48
2017-04-17T04:54:04.491Z,1011.46
2017-04-17T04:54:45.369Z,1011.46
2017-04-17T04:55:26.261Z,1011.43
2017-04-17T04:56:07.135Z,1011.43
2017-04-17T04:56:48.016Z,1011.46
2017-04-17T04:57:28.881Z,1011.47
2017-04-17T04:58:09.764Z,1011.48
2017-04-17T04:58:50.627Z,1011.46
2017-04-17T04:59:31.506Z,1011.5
2017-04-17T05:00:12.390Z,1011.52
2017-04-17T05:00:53.266Z,1011.54
2017-04-17T05:01:34.152Z,1011.47
2017-04-17T05:02:15.046Z,1011.48
2017-04-17T05:02:55.924Z,1011.49
2017-04-17T05:03:36.807Z,1011.47
2017-04-17T05:04:17.678Z,1011.52
2017-04-17T05:04:58.558Z,1011.61
2017-04-17T05:05:40.250Z,1011.51
2017-04-17T05:06:21.156Z,1011.53
2017-04-17T05:07:02.034Z,1011.48
2017-04-17T05:07:42.914Z,1011.53
2017-04-17T05:08:23.832Z,1011.58
2017-04-17T05:09:04.684Z,1011.57
2017-04-17T05:09:45.558Z,1011.56
2017-04-17T05:10:26.434Z,1011.53
2017-04-17T05:11:07.325Z,1011.59
2017-04-17T05:11:48.194Z,1011.55
2017-04-17T05:12:29.079Z,1011.56
2017-04-17T05:13:09.942Z,1011.61
2017-04-17T05:13:50.826Z,1011.57
2017-04-17T05:14:31.700Z,1011.58
2017-04-17T05:15:12.585Z,1011.57
2017-04-17T05:15:53.451Z,1011.58
2017-04-17T05:16:34.327Z,1011.59
2017-04-17T05:17:15.183Z,1011.58
2017-04-17T05:17:56.052Z,1011.54
2017-04-17T05:18:36.929Z,1011.55
2017-04-17T05:19:17.811Z,1011.57
2017-04-17T05:19:58.698Z,1011.54
2017-04-17T05:20:39.573Z,1011.56
2017-04-17T05:21:20.462Z,1011.52
2017-04-17T05:22:01.339Z,1011.53
2017-04-17T05:22:42.215Z,1011.56
2017-04-17T05:23:23.091Z,1011.54
2017-04-17T05:24:03.974Z,1011.54
2017-04-17T05:24:44.850Z,1011.52
2017-04-17T05:25:25.736Z,1011.55
2017-04-17T05:26:06.612Z,1011.53
2017-04-17T05:26:47.478Z,1011.53
2017-04-17T05:27:28.355Z,1011.57
2017-04-17T05:28:09.219Z,1011.49
2017-04-17T05:28:50.082Z,1011.53
2017-04-17T05:29:30.967Z,1011.53
2017-04-17T05:30:11.861Z,1011.55
2017-04-17T05:30:52.729Z,1011.54
2017-04-17T05:31:33.613Z,1011.54
2017-04-17T05:32:14.505Z,1011.56
2017-04-17T05:32:55.372Z,1011.58
2017-04-17T05:33:36.248Z,1011.59
2017-04-17T05:34:17.117Z,1011.6
2017-04-17T05:34:58.036Z,1011.64
2017-04-17T05:35:38.924Z,1011.59
2017-04-17T05:36:19.792Z,1011.57
2017-04-17T05:37:00.668Z,1011.6
2017-04-17T05:37:41.535Z,1011.55
2017-04-17T05:38:22.415Z,1011.59
2017-04-17T05:39:03.293Z,1011.52
2017-04-17T05:39:44.166Z,1011.57
2017-04-17T05:40:25.043Z,1011.52
2017-04-17T05:41:05.930Z,1011.54
2017-04-17T05:41:46.805Z,1011.56
2017-04-17T05:42:27.687Z,1011.59
2017-04-17T05:43:08.554Z,1011.61
2017-04-17T05:43:49.429Z,1011.57
2017-04-17T05:44:30.286Z,1011.57
2017-04-17T05:45:11.178Z,1011.57
2017-04-17T05:45:52.031Z,1011.6
2017-04-17T05:46:32.910Z,1011.61
2017-04-17T05:47:13.776Z,1011.59
2017-04-17T05:47:54.634Z,1011.57
2017-04-17T05:48:35.553Z,1011.6
2017-04-17T05:49:16.422Z,1011.62
2017-04-17T05:49:57.317Z,1011.59
2017-04-17T05:50:38.198Z,1011.59
2017-04-17T05:51:19.088Z,1011.58
2017-04-17T05:51:59.958Z,1011.65
2017-04-17T05:52:40.861Z,1011.66
2017-04-17T05:53:21.732Z,1011.62
2017-04-17T05:54:02.605Z,1011.63
2017-04-17T05:54:43.485Z,1011.63
2017-04-17T05:55:24.351Z,1011.6
2017-04-17T05:56:05.231Z,1011.67
2017-04-17T05:56:46.099Z,1011.63
2017-04-17T05:57:26.964Z,1011.64
2017-04-17T05:58:07.855Z,1011.64
2017-04-17T05:58:48.717Z,1011.66
2017-04-17T05:59:29.591Z,1011.64
2017-04-17T06:00:10.451Z,1011.66
2017-04-17T06:00:51.340Z,1011.64
2017-04-17T06:01:32.209Z,1011.66
2017-04-17T06:02:13.087Z,1011.66
2017-04-17T06:02:53.957Z,1011.62
2017-04-17T06:03:34.882Z,1011.64
2017-04-17T06:04:15.768Z,1011.68
2017-04-17T06:04:56.643Z,1011.67
2017-04-17T06:05:37.514Z,1011.65
2017-04-17T06:06:18.373Z,1011.65
2017-04-17T06:06:59.238Z,1011.66
2017-04-17T06:07:40.145Z,1011.66
2017-04-17T06:08:21.002Z,1011.66
2017-04-17T06:09:01.873Z,1011.64
2017-04-17T06:09:42.736Z,1011.66
2017-04-17T06:10:23.633Z,1011.64
2017-04-17T06:11:04.480Z,1011.65
2017-04-17T06:11:45.353Z,1011.72
2017-04-17T06:12:26.202Z,1011.67
2017-04-17T06:13:07.094Z,1011.67
2017-04-17T06:13:47.976Z,1011.68
2017-04-17T06:14:28.854Z,1011.65
2017-04-17T06:15:09.732Z,1011.68
2017-04-17T06:15:50.590Z,1011.66
2017-04-17T06:16:31.470Z,1011.64
2017-04-17T06:17:12.360Z,1011.65
2017-04-17T06:17:53.261Z,1011.64
2017-04-17T06:18:34.104Z,1011.67
2017-04-17T06:19:14.958Z,1011.67
2017-04-17T06:19:55.828Z,1011.64
2017-04-17T06:20:36.701Z,1011.65
2017-04-17T06:21:17.556Z,1011.56
2017-04-17T06:21:58.426Z,1011.58
2017-04-17T06:22:39.307Z,1011.62
2017-04-17T06:23:20.176Z,1011.62
2017-04-17T06:24:01.051Z,1011.59
2017-04-17T06:24:41.943Z,1011.61
2017-04-17T06:25:22.799Z,1011.61
2017-04-17T06:26:03.662Z,1011.61
2017-04-17T06:26:44.544Z,1011.61
2017-04-17T06:27:25.423Z,1011.61
2017-04-17T06:28:06.295Z,1011.61
2017-04-17T06:28:47.158Z,1011.62
2017-04-17T06:29:28.033Z,1011.6
2017-04-17T06:30:08.893Z,1011.65
2017-04-17T06:30:49.763Z,1011.59
2017-04-17T06:31:30.633Z,1011.6
2017-04-17T06:32:11.523Z,1011.62
2017-04-17T06:32:52.400Z,1011.63
2017-04-17T06:33:33.282Z,1011.62
2017-04-17T06:34:14.150Z,1011.61
2017-04-17T06:34:55.021Z,1011.6
2017-04-17T06:35:35.884Z,1011.59
2017-04-17T06:36:16.778Z,1011.61
2017-04-17T06:36:57.657Z,1011.55
2017-04-17T06:37:38.542Z,1011.61
2017-04-17T06:38:19.413Z,1011.58
2017-04-17T06:39:00.261Z,1011.57
2017-04-17T06:39:41.130Z,1011.55
2017-04-17T06:40:22.005Z,1011.56
2017-04-17T06:41:02.943Z,1011.61
2017-04-17T06:41:43.825Z,1011.6
2017-04-17T06:42:24.721Z,1011.61
2017-04-17T06:43:05.607Z,1011.58
2017-04-17T06:43:46.487Z,1011.61
2017-04-17T06:44:27.372Z,1011.58
2017-04-17T06:45:08.247Z,1011.59
2017-04-17T06:45:49.127Z,1011.53
2017-04-17T06:46:29.999Z,1011.53
2017-04-17T06:47:10.866Z,1011.55
2017-04-17T06:47:51.774Z,1011.51
2017-04-17T06:48:32.656Z,1011.51
2017-04-17T06:49:13.549Z,1011.54
2017-04-17T06:49:54.399Z,1011.53
2017-04-17T06:50:35.279Z,1011.54
2017-04-17T06:51:16.247Z,1011.55
2017-04-17T06:51:57.082Z,1011.5
2017-04-17T06:52:37.954Z,1011.54
2017-04-17T06:53:18.846Z,1011.51
2017-04-17T06:53:59.729Z,1011.51
2017-04-17T06:54:40.604Z,1011.51
2017-04-17T06:55:21.475Z,1011.45
2017-04-17T06:56:02.355Z,1011.43
2017-04-17T06:56:43.240Z,1011.47
2017-04-17T06:57:24.128Z,1011.45
2017-04-17T06:58:05.000Z,1011.46
2017-04-17T06:58:45.864Z,1011.45
2017-04-17T06:59:26.775Z,1011.47
2017-04-17T07:00:07.673Z,1011.46
2017-04-17T07:00:48.524Z,1011.42
2017-04-17T07:01:29.401Z,1011.45
2017-04-17T07:02:10.283Z,1011.43
2017-04-17T07:02:51.162Z,1011.43
2017-04-17T07:03:32.035Z,1011.47
2017-04-17T07:04:12.911Z,1011.44
2017-04-17T07:04:53.794Z,1011.44
2017-04-17T07:05:34.662Z,1011.44
2017-04-17T07:06:15.557Z,1011.39
2017-04-17T07:06:56.444Z,1011.42
2017-04-17T07:07:37.344Z,1011.45
2017-04-17T07:08:18.250Z,1011.41
2017-04-17T07:08:59.128Z,1011.45
2017-04-17T07:09:39.993Z,1011.43
2017-04-17T07:10:20.876Z,1011.41
2017-04-17T07:11:01.768Z,1011.41
2017-04-17T07:11:42.656Z,1011.4
2017-04-17T07:12:23.524Z,1011.37
2017-04-17T07:13:04.408Z,1011.36
2017-04-17T07:13:45.307Z,1011.41
2017-04-17T07:14:26.200Z,1011.39
2017-04-17T07:15:07.054Z,1011.4
2017-04-17T07:15:47.934Z,1011.39
2017-04-17T07:16:28.801Z,1011.43
2017-04-17T07:17:09.680Z,1011.46
2017-04-17T07:17:50.562Z,1011.39
2017-04-17T07:18:31.446Z,1011.41
2017-04-17T07:19:12.320Z,1011.36
2017-04-17T07:19:53.193Z,1011.39
2017-04-17T07:20:34.122Z,1011.46
2017-04-17T07:21:15.003Z,1011.4
2017-04-17T07:21:55.889Z,1011.43
2017-04-17T07:22:36.794Z,1011.38
2017-04-17T07:23:17.668Z,1011.35
2017-04-17T07:23:58.535Z,1011.38
2017-04-17T07:24:39.411Z,1011.32
2017-04-17T07:25:20.293Z,1011.34
2017-04-17T07:26:01.169Z,1011.39
2017-04-17T07:26:42.049Z,1011.36
2017-04-17T07:27:22.917Z,1011.34
2017-04-17T07:28:03.794Z,1011.34
2017-04-17T07:28:44.689Z,1011.32
2017-04-17T07:29:25.569Z,1011.31
2017-04-17T07:30:06.462Z,1011.36
2017-04-17T07:30:47.353Z,1011.3
2017-04-17T07:31:28.246Z,1011.35
2017-04-17T07:32:09.119Z,1011.31
2017-04-17T07:32:49.989Z,1011.32
2017-04-17T07:33:30.873Z,1011.31
2017-04-17T07:34:11.755Z,1011.36
2017-04-17T07:34:52.639Z,1011.33
2017-04-17T07:35:33.514Z,1011.35
2017-04-17T07:36:14.410Z,1011.29
2017-04-17T07:36:55.298Z,1011.3
2017-04-17T07:37:36.178Z,1011.32
2017-04-17T07:38:17.061Z,1011.32
2017-04-17T07:38:57.922Z,1011.34
2017-04-17T07:39:38.813Z,1011.36
2017-04-17T07:40:19.695Z,1011.28
2017-04-17T07:41:00.573Z,1011.37
2017-04-17T07:41:41.458Z,1011.34
2017-04-17T07:42:22.315Z,1011.77
2017-04-17T07:43:03.201Z,1011.32
2017-04-17T07:43:44.082Z,1011.41
2017-04-17T07:44:24.956Z,1012.2
2017-04-17T07:45:05.825Z,1011.97
2017-04-17T07:45:46.707Z,1011.3
2017-04-17T07:46:27.602Z,1011.67
2017-04-17T07:47:08.474Z,1012.5
2017-04-17T07:47:49.346Z,1011.35
2017-04-17T07:48:30.222Z,1011.36
2017-04-17T07:49:11.112Z,1011.25
2017-04-17T07:49:52.000Z,1011.32
2017-04-17T07:50:32.880Z,1011.29
2017-04-17T07:51:13.749Z,1011.43
2017-04-17T07:51:54.622Z,1012.35
2017-04-17T07:52:35.575Z,1012.49
2017-04-17T07:53:16.540Z,1012.5
2017-04-17T07:53:57.406Z,1011.65
2017-04-17T07:54:38.297Z,1011.53
2017-04-17T07:55:19.189Z,1012.66
2017-04-17T07:56:00.077Z,1012.22
2017-04-17T07:56:40.946Z,1011.45
2017-04-17T07:57:21.867Z,1011.44
2017-04-17T07:58:02.740Z,1012.2
2017-04-17T07:58:43.621Z,1012.55
2017-04-17T07:59:24.490Z,1012.48
2017-04-17T08:00:05.380Z,1012.51
2017-04-17T08:00:46.258Z,1012.52
2017-04-17T08:01:27.136Z,1012.38
2017-04-17T08:02:08.011Z,1012.35
2017-04-17T08:02:48.913Z,1012.19
2017-04-17T08:03:29.797Z,1012.29
2017-04-17T08:04:10.683Z,1012.24
2017-04-17T08:04:51.569Z,1012.2
2017-04-17T08:05:32.467Z,1012.22
2017-04-17T08:06:13.337Z,1012.14
2017-04-17T08:06:54.219Z,1012.15
2017-04-17T08:07:35.121Z,1011.19
2017-04-17T08:08:16.007Z,1011.17
2017-04-17T08:08:56.882Z,1011.17
2017-04-17T08:09:37.829Z,1012.24
2017-04-17T08:10:19.119Z,1011.21
2017-04-17T08:11:00.531Z,1011.17
2017-04-17T08:11:41.942Z,1011.19
2017-04-17T08:12:23.323Z,1011.16
2017-04-17T08:13:04.711Z,1011.19
2017-04-17T08:13:46.061Z,1011.23
2017-04-17T08:14:27.514Z,1011.49
2017-04-17T08:15:08.884Z,1011.86
2017-04-17T08:15:50.266Z,1011.36
2017-04-17T08:16:31.630Z,1011.45
2017-04-17T08:17:13.018Z,1012.13
2017-04-17T08:17:54.372Z,1012.13
2017-04-17T08:18:35.748Z,1011.89
2017-04-17T08:19:17.153Z,1011.98